Time;durP1;ratioP1;P1;durP2;ratioP2;P2;SDS_P1;SDS_P2;PMS_P1;PMS_P2;Temp;Humidity;BMP_temperature;BMP_pressure;BME280_temperature;BME280_humidity;BME280_pressure;Samples;Min_cycle;Max_cycle;Signal;HPM_P1;HPM_P2
2022/04/05 00:00:57;;;;;;;17.40;12.73;;;6.70;99.90;;;;;;5074969;28;20240;-65
2022/04/05 00:03:22;;;;;;;15.60;12.47;;;6.70;99.90;;;;;;5077317;28;20180;-63
2022/04/05 00:05:48;;;;;;;15.57;12.30;;;6.70;99.90;;;;;;5077391;28;20174;-62
2022/04/05 00:08:16;;;;;;;15.00;12.20;;;6.80;99.90;;;;;;5077626;28;20217;-62
2022/04/05 00:10:43;;;;;;;16.37;11.73;;;6.80;99.90;;;;;;5077114;28;20196;-63
2022/04/05 00:13:09;;;;;;;15.87;11.77;;;6.80;99.90;;;;;;5077231;28;20634;-63
2022/04/05 00:15:35;;;;;;;16.00;11.97;;;6.80;99.90;;;;;;5077569;28;20194;-63
2022/04/05 00:18:02;;;;;;;14.17;10.87;;;6.80;99.90;;;;;;5076850;28;20194;-62
2022/04/05 00:20:28;;;;;;;15.17;11.73;;;6.90;99.90;;;;;;5077064;28;20271;-62
2022/04/05 00:22:54;;;;;;;14.10;11.33;;;6.90;99.90;;;;;;5077043;28;20202;-63
2022/04/05 00:25:20;;;;;;;15.13;11.50;;;6.90;99.90;;;;;;5076995;28;20177;-62
2022/04/05 00:27:47;;;;;;;14.40;11.60;;;6.90;99.90;;;;;;5077364;28;20193;-64
2022/04/05 00:30:13;;;;;;;13.63;11.47;;;6.90;99.90;;;;;;5077148;28;20174;-63
2022/04/05 00:32:39;;;;;;;13.53;11.03;;;7.00;99.90;;;;;;5076711;28;20653;-63
2022/04/05 00:35:05;;;;;;;16.13;12.03;;;7.00;99.90;;;;;;5077053;28;20178;-62
2022/04/05 00:37:31;;;;;;;16.27;11.37;;;7.00;99.90;;;;;;5076817;28;20277;-63
2022/04/05 00:39:56;;;;;;;14.70;11.03;;;7.10;99.90;;;;;;5076548;28;20757;-63
2022/04/05 00:42:22;;;;;;;15.87;11.17;;;7.00;99.90;;;;;;5076716;28;20203;-63
2022/04/05 00:44:48;;;;;;;13.03;9.97;;;7.10;99.90;;;;;;5076912;28;20249;-63
2022/04/05 00:47:19;;;;;;;14.07;10.87;;;7.10;99.90;;;;;;5076244;28;20190;-63
2022/04/05 00:49:47;;;;;;;13.93;10.60;;;7.10;99.90;;;;;;5076540;28;20166;-62
2022/04/05 00:52:14;;;;;;;12.90;10.50;;;7.10;99.90;;;;;;5076454;28;20708;-63
2022/04/05 00:54:41;;;;;;;14.03;10.13;;;7.10;99.90;;;;;;5076397;28;20181;-63
2022/04/05 00:57:12;;;;;;;14.30;10.70;;;7.10;99.90;;;;;;5076246;28;20182;-62
2022/04/05 00:59:43;;;;;;;14.50;10.83;;;7.10;99.90;;;;;;5076222;28;20207;-62
2022/04/05 01:02:14;;;;;;;13.33;9.63;;;7.10;99.90;;;;;;5076240;28;20185;-63
2022/04/05 01:04:42;;;;;;;13.03;10.30;;;7.10;99.90;;;;;;5076130;28;20174;-63
2022/04/05 01:07:16;;;;;;;14.20;11.40;;;7.20;99.90;;;;;;5076049;28;20582;-62
2022/04/05 01:09:42;;;;;;;13.50;10.80;;;7.20;99.90;;;;;;5076198;28;20185;-63
2022/04/05 01:12:09;;;;;;;14.33;11.40;;;7.20;99.90;;;;;;5075783;28;20181;-63
2022/04/05 01:14:37;;;;;;;15.43;10.50;;;7.30;99.90;;;;;;5076507;28;20178;-62
2022/04/05 01:17:03;;;;;;;16.97;12.67;;;7.30;99.90;;;;;;5076117;28;20188;-62
2022/04/05 01:19:30;;;;;;;16.17;11.80;;;7.30;99.90;;;;;;5076148;28;20198;-62
2022/04/05 01:21:57;;;;;;;19.57;12.53;;;7.30;99.90;;;;;;5075936;28;20180;-62
2022/04/05 01:24:22;;;;;;;17.73;12.37;;;7.30;99.90;;;;;;5075814;28;20170;-62
2022/04/05 01:26:51;;;;;;;16.67;11.30;;;7.40;99.90;;;;;;5075725;28;20535;-62
2022/04/05 01:29:19;;;;;;;19.00;12.43;;;7.40;99.90;;;;;;5075847;28;20185;-62
2022/04/05 01:31:52;;;;;;;17.90;11.90;;;7.40;99.90;;;;;;5075630;28;20178;-63
2022/04/05 01:34:20;;;;;;;16.40;11.37;;;7.40;99.90;;;;;;5076256;28;20529;-62
2022/04/05 01:36:50;;;;;;;15.10;10.13;;;7.50;99.90;;;;;;5076116;28;20174;-62
2022/04/05 01:39:17;;;;;;;16.37;11.07;;;7.50;99.90;;;;;;5075529;28;20233;-62
2022/04/05 01:41:44;;;;;;;18.60;11.17;;;7.60;99.90;;;;;;5075569;28;20664;-63
2022/04/05 01:44:12;;;;;;;18.57;11.83;;;7.60;99.90;;;;;;5075524;28;20174;-63
2022/04/05 01:46:38;;;;;;;18.83;11.97;;;7.60;99.90;;;;;;5075763;28;20216;-62
2022/04/05 01:49:09;;;;;;;16.90;10.53;;;7.60;99.90;;;;;;5075272;28;20269;-63
2022/04/05 01:51:36;;;;;;;14.97;10.63;;;7.60;99.90;;;;;;5075476;28;20192;-62
2022/04/05 01:54:06;;;;;;;14.97;11.13;;;7.60;99.90;;;;;;5075285;28;20652;-63
2022/04/05 01:56:45;;;;;;;15.10;10.27;;;7.70;99.90;;;;;;5074046;28;20235;-63
2022/04/05 01:59:12;;;;;;;15.37;10.73;;;7.70;99.90;;;;;;5075057;28;20213;-63
2022/04/05 02:01:38;;;;;;;18.07;11.47;;;7.70;99.90;;;;;;5074953;28;20188;-63
2022/04/05 02:04:04;;;;;;;17.27;11.23;;;7.60;99.90;;;;;;5075203;28;20705;-62
2022/04/05 02:06:30;;;;;;;14.40;10.07;;;7.50;99.90;;;;;;5075438;28;20556;-63
2022/04/05 02:08:56;;;;;;;16.80;9.80;;;7.50;99.90;;;;;;5075047;28;20197;-63
2022/04/05 02:11:23;;;;;;;18.37;11.10;;;7.40;99.90;;;;;;5074869;28;20703;-63
2022/04/05 02:13:49;;;;;;;15.53;10.47;;;7.20;99.90;;;;;;5075302;28;20186;-63
2022/04/05 02:16:15;;;;;;;19.07;10.30;;;7.20;99.90;;;;;;5073664;28;20177;-63
2022/04/05 02:18:41;;;;;;;17.10;9.80;;;7.10;99.90;;;;;;5075211;28;20650;-62
2022/04/05 02:21:07;;;;;;;17.67;10.73;;;7.10;99.90;;;;;;5075682;28;20170;-63
2022/04/05 02:23:33;;;;;;;10.53;7.40;;;7.00;99.90;;;;;;5075086;28;20247;-62
2022/04/05 02:25:59;;;;;;;6.13;5.40;;;7.00;99.90;;;;;;5074751;28;20193;-63
2022/04/05 02:28:25;;;;;;;5.70;5.20;;;6.90;99.90;;;;;;5074651;28;20733;-62
2022/04/05 02:30:51;;;;;;;5.97;4.93;;;6.90;99.90;;;;;;5074940;28;20268;-63
2022/04/05 02:33:17;;;;;;;5.00;4.50;;;6.80;99.90;;;;;;5074290;28;20223;-62
2022/04/05 02:35:43;;;;;;;4.70;4.40;;;6.80;99.90;;;;;;5074788;28;20252;-63
2022/04/05 02:38:09;;;;;;;7.57;4.70;;;6.80;99.90;;;;;;5074653;28;20190;-62
2022/04/05 02:40:35;;;;;;;8.27;5.00;;;6.70;99.90;;;;;;5074214;28;20319;-62
2022/04/05 02:43:03;;;;;;;5.17;4.67;;;6.70;99.90;;;;;;5074374;28;20170;-62
2022/04/05 02:45:29;;;;;;;5.40;4.90;;;6.70;99.90;;;;;;5074343;28;20257;-64
2022/04/05 02:47:55;;;;;;;4.87;4.30;;;6.70;99.90;;;;;;5073889;28;20229;-62
2022/04/05 02:50:21;;;;;;;4.70;4.40;;;6.60;99.90;;;;;;5074491;28;20189;-63
2022/04/05 02:52:47;;;;;;;4.63;4.33;;;6.70;99.90;;;;;;5074086;28;20188;-63
2022/04/05 02:55:13;;;;;;;4.67;4.27;;;6.60;99.90;;;;;;5072797;28;20201;-63
2022/04/05 02:57:41;;;;;;;4.37;4.07;;;6.60;99.90;;;;;;5074874;28;20243;-62
2022/04/05 03:00:08;;;;;;;4.47;4.17;;;6.60;99.90;;;;;;5074668;28;20289;-63
2022/04/05 03:02:35;;;;;;;4.40;4.10;;;6.50;99.90;;;;;;5074680;28;20257;-63
2022/04/05 03:05:02;;;;;;;5.00;4.20;;;6.50;99.90;;;;;;5076229;28;20177;-65
2022/04/05 03:07:28;;;;;;;5.13;4.63;;;6.50;99.90;;;;;;5074823;28;20266;-62
2022/04/05 03:09:54;;;;;;;4.87;4.43;;;6.50;99.90;;;;;;5074256;28;20190;-62
2022/04/05 03:12:19;;;;;;;5.57;4.90;;;6.50;99.90;;;;;;5074270;28;20205;-62
2022/04/05 03:14:46;;;;;;;5.40;4.90;;;6.50;99.90;;;;;;5073848;28;20549;-63
2022/04/05 03:17:12;;;;;;;5.33;4.83;;;6.50;99.90;;;;;;5072655;28;20210;-66
2022/04/05 03:19:38;;;;;;;5.60;5.10;;;6.50;99.90;;;;;;5074255;28;20689;-63
2022/04/05 03:22:08;;;;;;;5.97;5.43;;;6.50;99.90;;;;;;5074270;28;20558;-64
2022/04/05 03:24:35;;;;;;;5.53;5.03;;;6.50;99.90;;;;;;5074232;28;20161;-64
2022/04/05 03:27:01;;;;;;;5.83;5.23;;;6.50;99.90;;;;;;5073699;28;20247;-64
2022/04/05 03:29:26;;;;;;;6.37;5.77;;;6.50;99.90;;;;;;5073882;28;20178;-64
2022/04/05 03:31:52;;;;;;;6.83;5.73;;;6.50;99.90;;;;;;5073625;28;20273;-63
2022/04/05 03:34:18;;;;;;;6.67;5.97;;;6.50;99.90;;;;;;5073965;28;20209;-63
2022/04/05 03:36:44;;;;;;;6.67;5.87;;;6.50;99.90;;;;;;5073977;28;20178;-64
2022/04/05 03:39:13;;;;;;;8.53;5.90;;;6.50;99.90;;;;;;5074745;28;20248;-63
2022/04/05 03:41:40;;;;;;;8.40;6.40;;;6.50;99.90;;;;;;5074127;28;20169;-65
2022/04/05 03:44:08;;;;;;;7.70;6.23;;;6.50;99.90;;;;;;5073853;28;20170;-65
2022/04/05 03:46:34;;;;;;;8.53;6.67;;;6.50;99.90;;;;;;5073596;28;20201;-64
2022/04/05 03:49:00;;;;;;;6.63;5.83;;;6.50;99.90;;;;;;5073209;28;20237;-65
2022/04/05 03:51:26;;;;;;;7.00;5.90;;;6.50;99.90;;;;;;5073414;28;20603;-64
2022/04/05 03:53:54;;;;;;;6.10;5.50;;;6.50;99.90;;;;;;5073455;28;20260;-65
2022/04/05 03:56:20;;;;;;;7.17;6.47;;;6.50;99.90;;;;;;5073280;28;20188;-66
2022/04/05 03:58:47;;;;;;;7.63;6.83;;;6.50;99.90;;;;;;5073421;28;20288;-67
2022/04/05 04:01:12;;;;;;;8.80;7.27;;;6.50;99.90;;;;;;5073227;28;20201;-65
2022/04/05 04:03:38;;;;;;;9.73;8.23;;;6.50;99.90;;;;;;5072858;28;20201;-65
2022/04/05 04:06:04;;;;;;;10.63;8.57;;;6.50;99.90;;;;;;5073182;28;20170;-65
2022/04/05 04:08:30;;;;;;;11.97;9.00;;;6.50;99.90;;;;;;5073674;28;20548;-65
2022/04/05 04:10:56;;;;;;;13.67;10.20;;;6.50;99.90;;;;;;5073132;28;20246;-65
2022/04/05 04:13:22;;;;;;;15.60;10.67;;;6.50;99.90;;;;;;5073233;28;20174;-64
2022/04/05 04:15:47;;;;;;;10.70;9.40;;;6.50;99.90;;;;;;5073131;28;20541;-65
2022/04/05 04:18:13;;;;;;;13.20;9.63;;;6.50;99.90;;;;;;5072752;28;20204;-65
2022/04/05 04:20:42;;;;;;;13.20;10.37;;;6.50;99.90;;;;;;5072981;28;20603;-65
2022/04/05 04:23:08;;;;;;;16.77;11.07;;;6.50;99.90;;;;;;5073016;28;20176;-65
2022/04/05 04:25:34;;;;;;;15.57;11.23;;;6.50;99.90;;;;;;5073310;28;20227;-65
2022/04/05 04:28:01;;;;;;;17.77;11.73;;;6.50;99.90;;;;;;5073102;28;20289;-65
2022/04/05 04:30:26;;;;;;;16.33;11.93;;;6.50;99.90;;;;;;5072861;28;20181;-65
2022/04/05 04:32:54;;;;;;;16.63;11.47;;;6.50;99.90;;;;;;5072662;28;20182;-64
2022/04/05 04:35:20;;;;;;;18.33;12.30;;;6.50;99.90;;;;;;5071534;28;20232;-65
2022/04/05 04:37:46;;;;;;;15.97;10.93;;;6.50;99.90;;;;;;5072723;28;20193;-65
2022/04/05 04:40:12;;;;;;;18.43;11.73;;;6.50;99.90;;;;;;5072843;28;20244;-65
2022/04/05 04:42:38;;;;;;;16.43;11.43;;;6.50;99.90;;;;;;5073282;28;20158;-65
2022/04/05 04:45:04;;;;;;;16.33;10.60;;;6.50;99.90;;;;;;5071455;28;20315;-65
2022/04/05 04:47:30;;;;;;;16.73;10.73;;;6.50;99.90;;;;;;5074547;28;20732;-64
2022/04/05 04:49:55;;;;;;;17.00;9.70;;;6.50;99.90;;;;;;5076713;28;20261;-65
2022/04/05 04:52:21;;;;;;;13.47;9.13;;;6.50;99.90;;;;;;5076387;28;20174;-65
2022/04/05 04:54:47;;;;;;;13.47;9.73;;;6.50;99.90;;;;;;5076968;28;20185;-64
2022/04/05 04:57:13;;;;;;;12.37;8.67;;;6.60;99.90;;;;;;5076171;28;20647;-65
2022/04/05 04:59:38;;;;;;;17.27;9.27;;;6.60;99.90;;;;;;5076668;28;20197;-65
2022/04/05 05:02:04;;;;;;;13.33;8.87;;;6.60;99.90;;;;;;5076428;28;20208;-65
2022/04/05 05:04:30;;;;;;;15.17;8.60;;;6.60;99.90;;;;;;5076242;28;20204;-65
2022/04/05 05:06:56;;;;;;;12.97;9.17;;;6.60;99.90;;;;;;5076422;28;20174;-65
2022/04/05 05:09:22;;;;;;;14.37;8.60;;;6.60;99.90;;;;;;5076030;28;20234;-65
2022/04/05 05:11:47;;;;;;;17.30;9.80;;;6.60;99.90;;;;;;5076037;28;20182;-65
2022/04/05 05:14:13;;;;;;;15.83;9.37;;;6.60;99.90;;;;;;5075924;28;20184;-65
2022/04/05 05:16:39;;;;;;;17.27;9.63;;;6.60;99.90;;;;;;5075976;28;20261;-65
2022/04/05 05:19:07;;;;;;;19.87;10.43;;;6.60;99.90;;;;;;5075588;28;20237;-64
2022/04/05 05:21:33;;;;;;;26.30;11.67;;;6.60;99.90;;;;;;5075901;28;20189;-65
2022/04/05 05:23:59;;;;;;;18.20;11.30;;;6.60;99.90;;;;;;5075928;28;20174;-65
2022/04/05 05:26:25;;;;;;;25.83;12.40;;;6.70;99.90;;;;;;5075755;28;20232;-65
2022/04/05 05:28:50;;;;;;;26.60;12.07;;;6.70;99.90;;;;;;5075732;28;20198;-65
2022/04/05 05:31:16;;;;;;;23.60;11.83;;;6.70;99.90;;;;;;5075745;28;20178;-64
2022/04/05 05:33:42;;;;;;;25.07;12.70;;;6.70;99.90;;;;;;5075469;28;20180;-65
2022/04/05 05:36:07;;;;;;;23.60;12.97;;;6.70;99.90;;;;;;5075668;28;20627;-65
2022/04/05 05:38:33;;;;;;;25.43;14.23;;;6.70;99.90;;;;;;5075496;28;20194;-65
2022/04/05 05:40:59;;;;;;;27.73;14.53;;;6.80;99.90;;;;;;5075913;28;20645;-65
2022/04/05 05:43:25;;;;;;;24.63;13.93;;;6.80;99.90;;;;;;5075545;28;20181;-64
2022/04/05 05:45:51;;;;;;;30.63;14.97;;;6.80;99.90;;;;;;5075411;28;20255;-64
2022/04/05 05:48:18;;;;;;;31.43;15.03;;;6.80;99.90;;;;;;5075348;28;20198;-65
2022/04/05 05:50:43;;;;;;;31.43;15.17;;;6.80;99.90;;;;;;5075626;28;20174;-65
2022/04/05 05:53:09;;;;;;;37.23;17.17;;;6.80;99.90;;;;;;5075354;28;20185;-65
2022/04/05 05:55:35;;;;;;;35.70;17.40;;;6.80;99.90;;;;;;5075144;28;20237;-65
2022/04/05 05:58:03;;;;;;;35.27;17.27;;;6.80;99.90;;;;;;5074240;28;20280;-65
2022/04/05 06:00:29;;;;;;;30.53;16.50;;;6.80;99.90;;;;;;5074915;28;20197;-65
2022/04/05 06:02:58;;;;;;;33.10;15.80;;;6.90;99.90;;;;;;5075013;28;20217;-65
2022/04/05 06:05:24;;;;;;;29.97;15.53;;;6.90;99.90;;;;;;5075345;28;20170;-65
2022/04/05 06:07:50;;;;;;;28.10;15.30;;;6.90;99.90;;;;;;5075292;28;20197;-65
2022/04/05 06:10:17;;;;;;;31.97;16.90;;;6.90;99.90;;;;;;5074864;28;20260;-65
2022/04/05 06:12:45;;;;;;;30.57;16.37;;;6.90;99.90;;;;;;5075056;28;20192;-65
2022/04/05 06:15:13;;;;;;;34.93;16.17;;;6.90;99.90;;;;;;5074857;28;20178;-65
2022/04/05 06:17:43;;;;;;;31.97;15.40;;;7.00;99.90;;;;;;5074800;28;20194;-65
2022/04/05 06:20:11;;;;;;;39.20;16.67;;;7.00;99.90;;;;;;5074806;28;20189;-65
2022/04/05 06:22:45;;;;;;;35.57;16.30;;;7.00;99.90;;;;;;5074648;28;20626;-65
2022/04/05 06:25:12;;;;;;;30.07;15.77;;;7.00;99.90;;;;;;5073399;28;20197;-64
2022/04/05 06:27:38;;;;;;;39.13;17.73;;;7.00;99.90;;;;;;5074573;28;20254;-65
2022/04/05 06:30:05;;;;;;;38.80;16.80;;;7.00;99.90;;;;;;5074817;28;20177;-65
2022/04/05 06:32:32;;;;;;;40.30;18.93;;;7.00;99.90;;;;;;5074271;28;20166;-64
2022/04/05 06:34:57;;;;;;;37.37;18.53;;;7.00;99.90;;;;;;5074778;28;20178;-65
2022/04/05 06:37:23;;;;;;;32.57;17.77;;;7.00;99.90;;;;;;5074838;28;20205;-65
2022/04/05 06:39:49;;;;;;;37.27;18.70;;;7.00;99.90;;;;;;5074315;28;20229;-65
2022/04/05 06:42:15;;;;;;;41.77;17.97;;;7.10;99.90;;;;;;5074865;28;20201;-65
2022/04/05 06:44:40;;;;;;;37.87;19.40;;;7.10;99.90;;;;;;5074371;28;20691;-65
2022/04/05 06:47:08;;;;;;;37.23;18.57;;;7.10;99.90;;;;;;5074189;28;20201;-65
2022/04/05 06:49:34;;;;;;;39.63;19.10;;;7.10;99.90;;;;;;5073911;28;20723;-65
2022/04/05 06:52:00;;;;;;;36.07;19.50;;;7.10;99.90;;;;;;5074455;28;20257;-65
2022/04/05 06:54:26;;;;;;;32.90;18.60;;;7.10;99.90;;;;;;5074529;28;20312;-65
2022/04/05 06:56:51;;;;;;;42.30;20.43;;;7.10;99.90;;;;;;5074022;28;20315;-65
2022/04/05 06:59:17;;;;;;;37.43;19.60;;;7.10;99.90;;;;;;5073843;28;20216;-65
2022/04/05 07:01:43;;;;;;;40.53;22.13;;;7.10;99.90;;;;;;5073921;28;20174;-65
2022/04/05 07:04:08;;;;;;;44.60;21.73;;;7.20;99.90;;;;;;5073781;28;20166;-65
2022/04/05 07:06:35;;;;;;;43.43;22.03;;;7.20;99.90;;;;;;5074037;28;20245;-65
2022/04/05 07:09:01;;;;;;;45.57;20.33;;;7.20;99.90;;;;;;5073687;28;20332;-65
2022/04/05 07:11:27;;;;;;;45.43;21.37;;;7.20;99.90;;;;;;5073613;28;20662;-65
2022/04/05 07:13:53;;;;;;;45.27;21.63;;;7.20;99.90;;;;;;5073878;28;20618;-65
2022/04/05 07:16:19;;;;;;;41.40;22.07;;;7.30;99.90;;;;;;5074312;28;20177;-65
2022/04/05 07:18:45;;;;;;;45.87;22.07;;;7.30;99.90;;;;;;5073363;28;20351;-64
2022/04/05 07:21:11;;;;;;;40.53;20.13;;;7.20;99.90;;;;;;5076123;28;20245;-63
2022/04/05 07:23:37;;;;;;;40.90;21.67;;;7.30;99.90;;;;;;5074541;28;20181;-63
2022/04/05 07:26:03;;;;;;;46.53;20.83;;;7.30;99.90;;;;;;5073061;28;20366;-64
2022/04/05 07:28:29;;;;;;;44.83;20.93;;;7.40;99.90;;;;;;5075330;28;20336;-63
2022/04/05 07:30:55;;;;;;;44.93;19.97;;;7.40;99.90;;;;;;5073923;28;20206;-64
2022/04/05 07:33:21;;;;;;;47.23;21.53;;;7.50;99.90;;;;;;5073712;28;20186;-64
2022/04/05 07:35:46;;;;;;;42.83;20.17;;;7.50;99.90;;;;;;5074296;28;20169;-64
2022/04/05 07:38:14;;;;;;;49.90;21.57;;;7.50;99.90;;;;;;5076021;28;20189;-63
2022/04/05 07:40:48;;;;;;;45.37;19.90;;;7.50;99.90;;;;;;5074390;28;20182;-63
2022/04/05 07:43:23;;;;;;;40.20;18.60;;;7.60;99.90;;;;;;5074729;28;20591;-64
2022/04/05 07:45:49;;;;;;;43.60;19.60;;;7.60;99.90;;;;;;5073905;28;20149;-63
2022/04/05 07:48:19;;;;;;;49.03;19.63;;;7.60;99.90;;;;;;5073889;28;20190;-63
2022/04/05 07:50:46;;;;;;;45.23;19.33;;;7.60;99.90;;;;;;5074077;28;20268;-64
2022/04/05 07:53:12;;;;;;;44.67;18.83;;;7.60;99.90;;;;;;5075100;28;20158;-63
2022/04/05 07:55:37;;;;;;;38.43;17.97;;;7.70;99.90;;;;;;5074054;28;20177;-63
2022/04/05 07:58:03;;;;;;;44.10;18.03;;;7.70;99.90;;;;;;5072952;28;20583;-64
2022/04/05 08:00:29;;;;;;;39.03;18.33;;;7.70;99.90;;;;;;5073508;28;20201;-64
2022/04/05 08:02:55;;;;;;;43.67;19.80;;;7.70;99.90;;;;;;5073308;28;20170;-64
2022/04/05 08:05:23;;;;;;;39.60;19.50;;;7.70;99.90;;;;;;5073489;28;20495;-64
2022/04/05 08:07:50;;;;;;;47.93;21.03;;;7.80;99.90;;;;;;5073412;28;20182;-64
2022/04/05 08:10:16;;;;;;;46.83;22.63;;;7.80;99.90;;;;;;5073152;28;20189;-63
2022/04/05 08:12:44;;;;;;;48.13;23.67;;;7.90;99.90;;;;;;5073112;28;20186;-64
2022/04/05 08:15:15;;;;;;;55.87;24.90;;;8.00;99.90;;;;;;5073132;28;20166;-64
2022/04/05 08:17:40;;;;;;;61.47;27.87;;;8.10;99.90;;;;;;5072837;28;20285;-64
2022/04/05 08:20:07;;;;;;;60.43;28.83;;;8.30;99.90;;;;;;5072979;28;20276;-64
2022/04/05 08:22:33;;;;;;;67.13;30.17;;;8.40;99.90;;;;;;5075581;28;20170;-64
2022/04/05 08:24:59;;;;;;;61.10;28.70;;;8.60;99.90;;;;;;5077594;28;20164;-63
2022/04/05 08:27:24;;;;;;;74.77;33.67;;;8.60;99.90;;;;;;5076752;28;20202;-64
2022/04/05 08:29:50;;;;;;;76.37;33.10;;;8.70;99.90;;;;;;5077490;28;20174;-67
2022/04/05 08:32:16;;;;;;;81.60;35.43;;;8.70;99.90;;;;;;5077142;28;20201;-66
2022/04/05 08:34:42;;;;;;;82.33;35.30;;;8.80;99.90;;;;;;5076929;28;20173;-65
2022/04/05 08:37:08;;;;;;;81.23;36.00;;;8.80;99.90;;;;;;5077107;28;20158;-66
2022/04/05 08:39:35;;;;;;;90.90;37.37;;;8.90;99.90;;;;;;5076995;28;20221;-64
2022/04/05 08:42:03;;;;;;;89.57;37.40;;;8.90;99.90;;;;;;5076705;28;20166;-65
2022/04/05 08:44:29;;;;;;;91.33;38.23;;;9.00;99.90;;;;;;5076587;28;20170;-65
2022/04/05 08:46:56;;;;;;;89.60;38.53;;;9.00;99.90;;;;;;5076822;28;20173;-64
2022/04/05 08:49:22;;;;;;;86.57;37.33;;;9.10;99.90;;;;;;5076409;28;20164;-64
2022/04/05 08:51:49;;;;;;;90.70;37.90;;;9.10;99.90;;;;;;5076450;28;20181;-64
2022/04/05 08:54:15;;;;;;;84.27;36.60;;;9.10;99.90;;;;;;5076426;28;20181;-65
2022/04/05 08:56:41;;;;;;;83.90;36.67;;;9.20;99.90;;;;;;5076243;28;20182;-64
2022/04/05 08:59:07;;;;;;;82.20;37.00;;;9.20;99.90;;;;;;5076183;28;20212;-64
2022/04/05 09:01:34;;;;;;;78.07;35.70;;;9.20;99.90;;;;;;5075028;28;20178;-64
2022/04/05 09:04:00;;;;;;;75.83;33.67;;;9.20;99.90;;;;;;5076203;28;20166;-64
2022/04/05 09:06:27;;;;;;;67.50;31.13;;;9.20;99.90;;;;;;5076772;28;20173;-64
2022/04/05 09:09:19;;;;;;;61.70;30.80;;;9.20;99.90;;;;;;5075210;28;20209;-65
2022/04/05 09:11:50;;;;;;;63.40;31.73;;;9.20;99.90;;;;;;5076429;28;20257;-64
2022/04/05 09:14:26;;;;;;;60.53;30.27;;;9.20;99.90;;;;;;5076000;28;20177;-64
2022/04/05 09:17:07;;;;;;;56.60;27.80;;;9.30;99.90;;;;;;5074842;28;20185;-64
2022/04/05 09:19:37;;;;;;;55.30;28.27;;;9.40;99.90;;;;;;5075662;28;20206;-64
2022/04/05 09:22:03;;;;;;;53.90;30.90;;;9.40;99.90;;;;;;5074738;28;20185;-64
2022/04/05 09:24:38;;;;;;;55.63;30.10;;;9.40;99.90;;;;;;5074685;28;20194;-64
2022/04/05 09:27:04;;;;;;;55.43;29.43;;;9.50;99.90;;;;;;5075876;28;20268;-64
2022/04/05 09:29:45;;;;;;;49.27;27.17;;;9.60;99.90;;;;;;5075850;28;20182;-64
2022/04/05 09:32:30;;;;;;;53.13;29.60;;;9.70;99.90;;;;;;5076236;28;20181;-64
2022/04/05 09:34:56;;;;;;;52.00;30.30;;;9.80;99.90;;;;;;5075612;28;20165;-64
2022/04/05 09:37:35;;;;;;;54.73;29.80;;;9.90;99.90;;;;;;5075633;28;20193;-64
2022/04/05 09:40:32;;;;;;;53.13;30.37;;;9.90;99.90;;;;;;5075638;28;20193;-64
2022/04/05 09:42:57;;;;;;;55.83;29.60;;;9.90;99.90;;;;;;5075862;28;20154;-63
2022/04/05 09:45:58;;;;;;;50.83;30.50;;;9.90;99.90;;;;;;5075814;28;20534;-64
2022/04/05 09:48:26;;;;;;;45.70;27.27;;;10.00;99.90;;;;;;5073998;28;20292;-65
2022/04/05 09:51:05;;;;;;;47.13;29.30;;;10.10;99.90;;;;;;5075556;28;20186;-64
2022/04/05 09:53:54;;;;;;;44.90;28.17;;;10.10;99.90;;;;;;5075442;28;20169;-65
2022/04/05 09:56:28;;;;;;;41.70;27.90;;;10.10;99.90;;;;;;5075459;28;20217;-65
2022/04/05 09:59:12;;;;;;;39.37;26.83;;;10.00;99.90;;;;;;5075407;28;20229;-65
2022/04/05 10:01:38;;;;;;;40.97;26.63;;;9.90;99.90;;;;;;5075567;28;20154;-64
2022/04/05 10:04:11;;;;;;;39.33;25.60;;;9.90;99.90;;;;;;5075129;28;20223;-64
2022/04/05 10:06:42;;;;;;;35.90;25.00;;;9.90;99.90;;;;;;5075153;28;20525;-64
2022/04/05 10:09:08;;;;;;;39.93;26.33;;;9.90;99.90;;;;;;5075252;28;20713;-64
2022/04/05 10:11:35;;;;;;;37.13;26.07;;;10.10;99.90;;;;;;5074914;28;20201;-64
2022/04/05 10:14:02;;;;;;;38.40;26.87;;;10.20;99.90;;;;;;5074960;28;20180;-64
2022/04/05 10:16:30;;;;;;;36.33;26.50;;;10.20;99.90;;;;;;5074987;28;20608;-63
2022/04/05 10:18:58;;;;;;;36.10;26.17;;;10.20;99.90;;;;;;5074478;28;20571;-64
2022/04/05 10:21:26;;;;;;;40.13;26.90;;;10.20;99.90;;;;;;5075322;28;20647;-64
2022/04/05 10:23:58;;;;;;;40.77;27.90;;;10.20;99.90;;;;;;5075043;28;20174;-63
2022/04/05 10:26:27;;;;;;;34.63;25.63;;;10.20;99.90;;;;;;5074836;28;20219;-64
2022/04/05 10:28:56;;;;;;;34.57;23.77;;;10.20;99.90;;;;;;5074613;28;20197;-64
2022/04/05 10:31:36;;;;;;;31.70;23.30;;;10.10;99.90;;;;;;5074842;28;20169;-63
2022/04/05 10:34:18;;;;;;;27.20;20.17;;;10.10;99.90;;;;;;5074338;28;20166;-63
2022/04/05 10:37:03;;;;;;;28.93;20.13;;;10.10;99.90;;;;;;5073296;28;20264;-65
2022/04/05 10:39:29;;;;;;;29.60;21.90;;;10.10;99.90;;;;;;5074420;28;20209;-65
2022/04/05 10:42:12;;;;;;;30.30;21.67;;;10.00;99.90;;;;;;5074630;28;20180;-65
2022/04/05 10:44:40;;;;;;;31.10;22.97;;;9.90;99.90;;;;;;5073848;28;20184;-65
2022/04/05 10:47:07;;;;;;;28.40;21.73;;;9.90;99.90;;;;;;5072959;28;20205;-65
2022/04/05 10:49:47;;;;;;;35.07;22.67;;;9.90;99.90;;;;;;5074049;28;20181;-65
2022/04/05 10:52:20;;;;;;;32.47;22.93;;;9.90;99.90;;;;;;5074485;28;20162;-65
2022/04/05 10:54:51;;;;;;;34.83;23.33;;;9.80;99.90;;;;;;5072857;28;20186;-65
2022/04/05 10:57:32;;;;;;;32.87;22.93;;;9.90;99.90;;;;;;5073997;28;20205;-65
2022/04/05 11:00:19;;;;;;;33.23;23.40;;;10.00;99.90;;;;;;5075101;28;20240;-64
2022/04/05 11:02:51;;;;;;;37.50;26.57;;;10.10;99.90;;;;;;5074337;28;20158;-63
2022/04/05 11:05:20;;;;;;;39.73;25.10;;;10.20;99.90;;;;;;5073892;28;20247;-63
2022/04/05 11:07:52;;;;;;;36.97;24.17;;;10.20;99.90;;;;;;5072647;28;20198;-63
2022/04/05 11:10:26;;;;;;;33.17;23.07;;;10.20;99.90;;;;;;5073756;28;20250;-63
2022/04/05 11:13:06;;;;;;;28.73;22.37;;;10.30;99.90;;;;;;5074181;28;20166;-64
2022/04/05 11:15:58;;;;;;;33.20;21.50;;;10.30;99.90;;;;;;5074359;28;20169;-64
2022/04/05 11:18:35;;;;;;;28.57;20.33;;;10.30;99.90;;;;;;5073105;28;20213;-65
2022/04/05 11:21:06;;;;;;;29.70;21.13;;;10.30;99.90;;;;;;5074014;28;20552;-63
2022/04/05 11:23:49;;;;;;;30.87;20.07;;;10.30;99.90;;;;;;5074048;28;20154;-63
2022/04/05 11:26:44;;;;;;;24.23;17.50;;;10.30;99.90;;;;;;5074319;28;20551;-63
2022/04/05 11:29:21;;;;;;;25.53;18.50;;;10.40;99.90;;;;;;5072926;28;20346;-64
2022/04/05 11:31:48;;;;;;;22.70;17.50;;;10.40;99.90;;;;;;5073540;28;20182;-64
2022/04/05 11:34:34;;;;;;;22.20;17.07;;;10.40;99.90;;;;;;5073392;28;20181;-64
2022/04/05 11:37:00;;;;;;;25.13;16.93;;;10.60;99.90;;;;;;5073392;28;20181;-63
2022/04/05 11:39:26;;;;;;;23.63;16.80;;;10.70;99.90;;;;;;5073922;28;20272;-64
2022/04/05 11:42:01;;;;;;;18.57;14.37;;;10.80;99.90;;;;;;5073526;28;20173;-64
2022/04/05 11:44:28;;;;;;;16.80;14.17;;;10.80;99.90;;;;;;5074050;28;20173;-63
2022/04/05 11:46:59;;;;;;;16.27;12.63;;;10.80;99.90;;;;;;5073505;28;20240;-63
2022/04/05 11:49:25;;;;;;;17.07;12.57;;;10.70;99.90;;;;;;5073101;28;20588;-63
2022/04/05 11:51:52;;;;;;;14.73;11.53;;;10.70;99.90;;;;;;5073926;28;20181;-64
2022/04/05 11:54:24;;;;;;;17.57;12.00;;;10.70;99.90;;;;;;5073588;28;20174;-64
2022/04/05 11:56:51;;;;;;;14.60;11.07;;;10.60;99.90;;;;;;5072396;28;20212;-64
2022/04/05 11:59:24;;;;;;;16.13;12.37;;;10.60;99.90;;;;;;5073130;28;20227;-64
2022/04/05 12:01:51;;;;;;;16.97;12.00;;;10.50;99.90;;;;;;5073350;28;20216;-63
2022/04/05 12:04:20;;;;;;;13.63;10.77;;;10.50;99.90;;;;;;5073050;28;20169;-64
2022/04/05 12:06:48;;;;;;;14.77;11.47;;;10.40;99.90;;;;;;5073232;28;20173;-63
2022/04/05 12:09:19;;;;;;;11.00;9.20;;;10.40;99.90;;;;;;5073007;28;20194;-64
2022/04/05 12:11:48;;;;;;;10.93;9.47;;;10.40;99.90;;;;;;5073726;28;20162;-64
2022/04/05 12:14:20;;;;;;;12.50;10.13;;;10.50;99.90;;;;;;5073074;28;20174;-64
2022/04/05 12:16:57;;;;;;;13.13;10.77;;;10.50;99.90;;;;;;5073185;28;20657;-63
2022/04/05 12:19:33;;;;;;;12.40;10.50;;;10.50;99.90;;;;;;5072963;28;20588;-64
2022/04/05 12:22:07;;;;;;;13.33;11.27;;;10.60;99.90;;;;;;5073474;28;20154;-64
2022/04/05 12:24:34;;;;;;;15.97;11.33;;;10.70;99.90;;;;;;5073410;28;20158;-64
2022/04/05 12:27:02;;;;;;;17.07;11.93;;;10.90;99.90;;;;;;5072847;28;20178;-63
2022/04/05 12:29:29;;;;;;;15.53;13.90;;;11.10;99.90;;;;;;5072864;28;20667;-64
2022/04/05 12:32:03;;;;;;;14.30;12.60;;;11.10;99.90;;;;;;5072986;28;20169;-64
2022/04/05 12:34:29;;;;;;;16.40;13.93;;;11.10;99.90;;;;;;5073001;28;20170;-64
2022/04/05 12:37:02;;;;;;;17.80;14.13;;;11.10;99.90;;;;;;5073159;28;20634;-65
2022/04/05 12:39:41;;;;;;;19.30;15.13;;;11.00;99.90;;;;;;5071805;28;20285;-64
2022/04/05 12:42:08;;;;;;;20.37;16.43;;;10.90;99.90;;;;;;5073317;28;20183;-64
2022/04/05 12:44:36;;;;;;;21.13;17.87;;;10.90;99.90;;;;;;5073379;28;20553;-64